createdAt,value
2018-12-21T00:00:45.091Z,74.90
2018-12-21T00:03:12.589Z,74.90
2018-12-21T00:05:40.121Z,74.70
2018-12-21T00:08:07.679Z,74.60
2018-12-21T00:10:35.162Z,74.40
2018-12-21T00:13:02.652Z,74.10
2018-12-21T00:15:30.136Z,73.60
2018-12-21T00:17:57.628Z,73.80
2018-12-21T00:20:25.154Z,74.30
2018-12-21T00:22:52.649Z,74.40
2018-12-21T00:25:20.278Z,74.50
2018-12-21T00:27:47.859Z,74.50
2018-12-21T00:30:20.861Z,74.60
2018-12-21T00:32:54.119Z,75.00
2018-12-21T00:35:27.422Z,75.00
2018-12-21T00:38:00.625Z,75.00
2018-12-21T00:40:33.808Z,75.00
2018-12-21T00:43:06.162Z,74.90
2018-12-21T00:45:38.529Z,74.70
2018-12-21T00:48:06.048Z,74.50
2018-12-21T00:50:33.606Z,74.40
2018-12-21T00:53:01.101Z,74.30
2018-12-21T00:55:28.776Z,74.40
2018-12-21T00:57:56.248Z,74.30
2018-12-21T01:00:25.602Z,74.50
2018-12-21T01:02:53.124Z,74.60
2018-12-21T01:05:21.821Z,74.70
2018-12-21T01:07:49.519Z,75.10
2018-12-21T01:10:17.063Z,75.10
2018-12-21T01:12:44.577Z,75.30
2018-12-21T01:15:12.319Z,75.40
2018-12-21T01:17:39.949Z,75.20
2018-12-21T01:20:08.050Z,75.20
2018-12-21T01:22:35.564Z,75.20
2018-12-21T01:25:03.274Z,74.90
2018-12-21T01:27:30.756Z,74.70
2018-12-21T01:29:58.230Z,74.50
2018-12-21T01:32:25.710Z,74.40
2018-12-21T01:34:53.211Z,74.30
2018-12-21T01:37:20.844Z,74.20
2018-12-21T01:39:48.366Z,74.40
2018-12-21T01:42:15.962Z,74.20
2018-12-21T01:44:43.440Z,74.30
2018-12-21T01:47:10.888Z,74.50
2018-12-21T01:49:38.344Z,74.70
2018-12-21T01:52:05.851Z,74.70
2018-12-21T01:54:33.327Z,74.70
2018-12-21T01:57:00.862Z,74.80
2018-12-21T01:59:28.381Z,74.90
2018-12-21T02:01:56.084Z,75.00
2018-12-21T02:04:23.622Z,75.10
2018-12-21T02:06:51.138Z,75.10
2018-12-21T02:09:18.615Z,74.90
2018-12-21T02:11:46.099Z,75.10
2018-12-21T02:14:13.747Z,75.00
2018-12-21T02:16:41.239Z,74.80
2018-12-21T02:19:08.720Z,74.90
2018-12-21T02:21:36.419Z,74.80
2018-12-21T02:24:03.995Z,74.80
2018-12-21T02:26:31.495Z,74.60
2018-12-21T02:28:59.167Z,74.70
2018-12-21T02:31:26.685Z,74.70
2018-12-21T02:33:54.182Z,74.70
2018-12-21T02:36:21.663Z,75.10
2018-12-21T02:38:49.142Z,75.20
2018-12-21T02:41:16.650Z,75.20
2018-12-21T02:43:44.147Z,75.20
2018-12-21T02:46:11.658Z,75.20
2018-12-21T02:48:39.121Z,75.10
2018-12-21T02:51:06.637Z,75.10
2018-12-21T02:53:34.078Z,75.10
2018-12-21T02:56:01.543Z,74.90
2018-12-21T02:58:29.079Z,74.90
2018-12-21T03:00:56.610Z,75.00
2018-12-21T03:03:24.106Z,75.40
2018-12-21T03:05:51.605Z,75.30
2018-12-21T03:08:19.083Z,75.40
2018-12-21T03:10:46.566Z,75.60
2018-12-21T03:13:14.050Z,75.80
2018-12-21T03:15:41.523Z,76.00
2018-12-21T03:18:09.145Z,75.80
2018-12-21T03:20:36.595Z,75.70
2018-12-21T03:23:04.122Z,75.90
2018-12-21T03:25:31.627Z,76.30
2018-12-21T03:27:59.160Z,76.40
2018-12-21T03:30:26.613Z,76.60
2018-12-21T03:32:54.083Z,76.30
2018-12-21T03:35:21.702Z,76.20
2018-12-21T03:37:49.221Z,75.90
2018-12-21T03:40:16.821Z,76.20
2018-12-21T03:42:44.321Z,76.30
2018-12-21T03:45:11.832Z,76.10
2018-12-21T03:47:39.307Z,76.00
2018-12-21T03:50:06.997Z,75.70
2018-12-21T03:52:34.594Z,75.80
2018-12-21T03:55:02.045Z,76.10
2018-12-21T03:57:29.513Z,76.20
2018-12-21T03:59:56.952Z,76.20
2018-12-21T04:02:24.445Z,76.30
2018-12-21T04:04:51.893Z,76.60
2018-12-21T04:07:19.343Z,76.50
2018-12-21T04:09:46.783Z,76.50
2018-12-21T04:12:14.264Z,77.10
2018-12-21T04:14:41.875Z,77.20
2018-12-21T04:17:09.440Z,77.60
2018-12-21T04:19:36.923Z,77.10
2018-12-21T04:22:04.398Z,77.10
2018-12-21T04:24:31.914Z,76.70
2018-12-21T04:26:59.378Z,76.20
2018-12-21T04:29:26.837Z,75.90
2018-12-21T04:31:54.409Z,75.60
2018-12-21T04:34:21.914Z,75.50
2018-12-21T04:36:49.413Z,75.40
2018-12-21T04:39:16.937Z,75.70
2018-12-21T04:41:44.459Z,76.00
2018-12-21T04:44:11.947Z,75.70
2018-12-21T04:46:39.438Z,75.80
2018-12-21T04:49:06.868Z,75.50
2018-12-21T04:51:34.391Z,75.60
2018-12-21T04:54:02.082Z,75.80
2018-12-21T04:56:29.613Z,75.90
2018-12-21T04:58:57.098Z,75.90
2018-12-21T05:01:24.634Z,76.10
2018-12-21T05:03:52.149Z,75.80
2018-12-21T05:06:20.629Z,75.70
2018-12-21T05:08:48.175Z,75.80
2018-12-21T05:11:15.662Z,75.80
2018-12-21T05:13:43.208Z,76.60
2018-12-21T05:16:10.679Z,76.60
2018-12-21T05:18:38.213Z,76.20
2018-12-21T05:21:05.753Z,76.30
2018-12-21T05:23:33.217Z,76.70
2018-12-21T05:26:00.687Z,77.20
2018-12-21T05:28:28.163Z,77.80
2018-12-21T05:30:55.599Z,78.20
2018-12-21T05:33:23.090Z,78.50
2018-12-21T05:35:50.561Z,77.80
2018-12-21T05:38:18.039Z,77.70
2018-12-21T05:40:45.526Z,77.80
2018-12-21T05:43:13.080Z,77.60
2018-12-21T05:45:40.651Z,76.90
2018-12-21T05:48:08.183Z,76.80
2018-12-21T05:50:35.669Z,76.90
2018-12-21T05:53:03.189Z,77.20
2018-12-21T05:55:30.715Z,76.80
2018-12-21T05:57:58.311Z,77.00
2018-12-21T06:00:25.765Z,77.10
2018-12-21T06:02:53.254Z,77.20
2018-12-21T06:05:20.804Z,77.50
2018-12-21T06:07:48.344Z,77.00
2018-12-21T06:10:15.863Z,76.90
2018-12-21T06:12:43.380Z,76.60
2018-12-21T06:15:10.905Z,76.70
2018-12-21T06:17:38.494Z,76.90
2018-12-21T06:20:06.263Z,76.80
2018-12-21T06:22:33.793Z,76.90
2018-12-21T06:25:01.383Z,77.00
2018-12-21T06:27:28.944Z,76.80
2018-12-21T06:29:56.419Z,77.20
2018-12-21T06:32:23.887Z,77.10
2018-12-21T06:34:51.323Z,76.60
2018-12-21T06:37:18.801Z,76.00
2018-12-21T06:39:46.387Z,76.10
2018-12-21T06:42:13.921Z,76.30
2018-12-21T06:44:41.430Z,76.20
2018-12-21T06:47:09.066Z,76.90
2018-12-21T06:49:36.567Z,77.20
2018-12-21T06:52:04.073Z,77.40
2018-12-21T06:54:31.560Z,77.00
2018-12-21T06:56:59.076Z,76.50
2018-12-21T06:59:26.618Z,75.80
2018-12-21T07:01:54.124Z,75.60
2018-12-21T07:04:21.589Z,75.60
2018-12-21T07:06:49.073Z,75.10
2018-12-21T07:09:16.565Z,75.10
2018-12-21T07:11:44.065Z,74.70
2018-12-21T07:14:11.675Z,74.50
2018-12-21T07:16:39.136Z,74.40
2018-12-21T07:19:06.648Z,74.20
2018-12-21T07:21:36.042Z,74.00
2018-12-21T07:24:03.587Z,73.90
2018-12-21T07:26:31.113Z,74.80
2018-12-21T07:28:58.632Z,74.70
2018-12-21T07:31:26.163Z,74.40
2018-12-21T07:33:53.728Z,74.60
2018-12-21T07:36:21.221Z,74.50
2018-12-21T07:38:48.798Z,74.30
2018-12-21T07:41:16.353Z,75.10
2018-12-21T07:43:43.842Z,74.60
2018-12-21T07:46:11.498Z,74.00
2018-12-21T07:48:38.958Z,74.50
2018-12-21T07:51:06.469Z,75.60
2018-12-21T07:53:36.068Z,75.90
2018-12-21T07:56:10.189Z,76.30
2018-12-21T07:58:37.710Z,76.70
2018-12-21T08:01:05.287Z,76.70
2018-12-21T08:03:32.889Z,77.90
2018-12-21T08:06:00.380Z,78.10
2018-12-21T08:08:27.910Z,78.50
2018-12-21T08:10:55.553Z,78.50
2018-12-21T08:13:23.086Z,78.80
2018-12-21T08:15:50.612Z,79.10
2018-12-21T08:18:18.146Z,78.90
2018-12-21T08:20:45.689Z,79.30
2018-12-21T08:23:13.243Z,79.60
2018-12-21T08:25:40.817Z,79.50
2018-12-21T08:28:08.341Z,80.90
2018-12-21T08:30:35.823Z,80.90
2018-12-21T08:33:03.392Z,80.70
2018-12-21T08:35:30.885Z,80.20
2018-12-21T08:37:58.384Z,79.80
2018-12-21T08:40:25.959Z,80.10
2018-12-21T08:42:53.476Z,80.30
2018-12-21T08:45:21.012Z,80.50
2018-12-21T08:47:48.543Z,81.10
2018-12-21T08:50:16.075Z,80.60
2018-12-21T08:52:43.556Z,79.90
2018-12-21T08:55:11.967Z,80.60
2018-12-21T08:57:39.934Z,80.60
2018-12-21T09:00:10.281Z,80.80
2018-12-21T09:02:37.808Z,80.30
2018-12-21T09:05:05.694Z,80.30
2018-12-21T09:07:33.233Z,80.50
2018-12-21T09:10:00.754Z,80.80
2018-12-21T09:12:28.280Z,80.30
2018-12-21T09:14:55.775Z,80.00
2018-12-21T09:17:23.366Z,80.50
2018-12-21T09:19:50.820Z,79.80
2018-12-21T09:22:18.338Z,80.30
2018-12-21T09:24:45.886Z,80.50
2018-12-21T09:27:13.411Z,80.40
2018-12-21T09:29:40.957Z,81.00
2018-12-21T09:32:08.489Z,81.80
2018-12-21T09:34:36.145Z,82.90
2018-12-21T09:37:03.808Z,82.90
2018-12-21T09:39:31.313Z,83.90
2018-12-21T09:41:58.878Z,83.40
2018-12-21T09:44:26.414Z,83.20
2018-12-21T09:46:53.970Z,82.70
2018-12-21T09:49:21.469Z,82.40
2018-12-21T09:51:48.959Z,83.50
2018-12-21T09:54:17.206Z,84.20
2018-12-21T09:56:44.719Z,84.70
2018-12-21T09:59:12.244Z,85.90
2018-12-21T10:01:39.779Z,87.60
2018-12-21T10:04:07.261Z,88.50
2018-12-21T10:06:34.747Z,87.70
2018-12-21T10:09:02.722Z,90.50
2018-12-21T10:11:30.240Z,90.00
2018-12-21T10:13:57.742Z,90.00
2018-12-21T10:16:25.270Z,90.10
2018-12-21T10:18:52.841Z,89.20
2018-12-21T10:21:20.334Z,88.60
2018-12-21T10:23:47.865Z,88.60
2018-12-21T10:26:15.420Z,88.80
2018-12-21T10:28:42.922Z,89.10
2018-12-21T10:31:10.394Z,88.60
2018-12-21T10:33:37.916Z,88.80
2018-12-21T10:36:05.909Z,87.90
2018-12-21T10:38:33.384Z,88.10
2018-12-21T10:41:00.907Z,87.30
2018-12-21T10:43:28.452Z,87.60
2018-12-21T10:45:56.011Z,86.20
2018-12-21T10:48:23.536Z,86.30
2018-12-21T10:50:51.065Z,86.00
2018-12-21T10:53:18.655Z,85.80
2018-12-21T10:55:46.240Z,84.70
2018-12-21T10:58:13.754Z,85.00
2018-12-21T11:00:41.279Z,85.60
2018-12-21T11:03:08.804Z,85.60
2018-12-21T11:05:36.377Z,84.40
2018-12-21T11:08:03.972Z,84.30
2018-12-21T11:10:31.478Z,83.70
2018-12-21T11:12:58.999Z,83.50
2018-12-21T11:15:26.522Z,84.10
2018-12-21T11:17:55.140Z,83.50
2018-12-21T11:20:22.689Z,82.60
2018-12-21T11:22:50.330Z,83.10
2018-12-21T11:25:17.970Z,83.00
2018-12-21T11:27:45.521Z,82.90
2018-12-21T11:30:13.229Z,82.70
2018-12-21T11:32:40.913Z,83.00
2018-12-21T11:35:08.500Z,82.40
2018-12-21T11:37:36.064Z,82.70
2018-12-21T11:40:04.015Z,82.00
2018-12-21T11:42:31.742Z,82.30
2018-12-21T11:44:59.371Z,81.60
2018-12-21T11:47:26.868Z,81.70
2018-12-21T11:49:54.408Z,81.20
2018-12-21T11:52:22.020Z,81.60
2018-12-21T11:54:49.544Z,80.60
2018-12-21T11:57:17.136Z,80.20
2018-12-21T11:59:45.105Z,81.10
2018-12-21T12:02:19.452Z,80.40
2018-12-21T12:04:42.662Z,81.00
2018-12-21T12:07:10.215Z,81.80
2018-12-21T12:09:37.704Z,80.90
2018-12-21T12:12:05.394Z,80.40
2018-12-21T12:14:33.156Z,80.90
2018-12-21T12:17:00.686Z,81.00
2018-12-21T12:19:28.219Z,80.80
2018-12-21T12:21:55.805Z,81.10
2018-12-21T12:24:23.345Z,81.20
2018-12-21T12:26:50.997Z,81.50
2018-12-21T12:29:18.758Z,81.20
2018-12-21T12:31:46.385Z,81.00
2018-12-21T12:34:14.171Z,81.10
2018-12-21T12:36:41.695Z,81.00
2018-12-21T12:39:09.558Z,81.70
2018-12-21T12:41:37.168Z,82.10
2018-12-21T12:44:04.828Z,81.60
2018-12-21T12:46:32.464Z,81.80
2018-12-21T12:49:00.028Z,81.80
2018-12-21T12:51:27.658Z,82.50
2018-12-21T12:53:55.223Z,83.80
2018-12-21T12:56:23.366Z,83.90
2018-12-21T12:58:52.008Z,83.50
2018-12-21T13:01:19.742Z,83.50
2018-12-21T13:03:47.468Z,84.20
2018-12-21T13:06:17.602Z,84.10
2018-12-21T13:08:45.294Z,84.50
2018-12-21T13:11:12.836Z,87.00
2018-12-21T13:13:40.496Z,88.50
2018-12-21T13:16:08.108Z,88.00
2018-12-21T13:18:35.797Z,89.00
2018-12-21T13:21:03.532Z,88.30
2018-12-21T13:23:31.104Z,88.00
2018-12-21T13:25:58.804Z,88.20
2018-12-21T13:28:26.419Z,87.70
2018-12-21T13:30:53.971Z,88.10
2018-12-21T13:33:21.541Z,88.20
2018-12-21T13:35:49.197Z,88.60
2018-12-21T13:38:16.850Z,89.00
2018-12-21T13:40:44.518Z,88.90
2018-12-21T13:43:12.108Z,88.80
2018-12-21T13:45:39.641Z,89.50
2018-12-21T13:48:07.322Z,88.80
2018-12-21T13:50:34.894Z,88.60
2018-12-21T13:53:02.468Z,89.10
2018-12-21T13:55:30.042Z,90.20
2018-12-21T13:57:57.643Z,90.20
2018-12-21T14:00:25.290Z,90.00
2018-12-21T14:02:52.859Z,90.30
2018-12-21T14:05:20.450Z,90.80
2018-12-21T14:07:48.038Z,90.40
2018-12-21T14:10:15.674Z,90.80
2018-12-21T14:12:43.231Z,90.80
2018-12-21T14:15:10.972Z,89.90
2018-12-21T14:17:38.535Z,89.60
2018-12-21T14:20:09.262Z,89.30
2018-12-21T14:22:37.024Z,89.90
2018-12-21T14:25:04.985Z,89.40
2018-12-21T14:27:32.670Z,89.40
2018-12-21T14:30:00.282Z,89.60
2018-12-21T14:32:27.901Z,89.00
2018-12-21T14:34:55.409Z,89.20
2018-12-21T14:37:22.990Z,89.50
2018-12-21T14:39:50.558Z,89.10
2018-12-21T14:42:18.092Z,89.50
2018-12-21T14:44:45.699Z,89.60
2018-12-21T14:47:13.274Z,90.00
2018-12-21T14:49:40.793Z,89.70
2018-12-21T14:52:08.352Z,89.60
2018-12-21T14:54:35.935Z,89.20
2018-12-21T14:57:03.490Z,89.40
2018-12-21T14:59:31.035Z,89.20
2018-12-21T15:01:58.639Z,89.70
2018-12-21T15:04:26.176Z,89.70
2018-12-21T15:06:53.684Z,89.70
2018-12-21T15:09:21.425Z,89.40
2018-12-21T15:11:49.030Z,89.70
2018-12-21T15:14:16.624Z,89.20
2018-12-21T15:16:44.282Z,89.00
2018-12-21T15:19:11.932Z,88.90
2018-12-21T15:21:39.553Z,89.10
2018-12-21T15:24:07.213Z,88.70
2018-12-21T15:26:34.791Z,88.80
2018-12-21T15:29:02.602Z,88.60
2018-12-21T15:31:30.318Z,88.50
2018-12-21T15:33:57.943Z,88.80
2018-12-21T15:36:25.516Z,88.90
2018-12-21T15:38:53.242Z,88.90
2018-12-21T15:41:20.822Z,88.80
2018-12-21T15:43:48.427Z,88.90
2018-12-21T15:46:16.024Z,89.10
2018-12-21T15:48:43.579Z,88.50
2018-12-21T15:51:11.198Z,88.50
2018-12-21T15:53:38.689Z,89.10
2018-12-21T15:56:06.404Z,89.30
2018-12-21T15:58:33.959Z,89.40
2018-12-21T16:01:01.772Z,89.20
2018-12-21T16:03:29.341Z,89.50
2018-12-21T16:05:56.888Z,88.90
2018-12-21T16:08:24.464Z,89.10
2018-12-21T16:10:52.012Z,89.40
2018-12-21T16:13:19.596Z,88.90
2018-12-21T16:15:47.110Z,88.90
2018-12-21T16:18:14.718Z,89.20
2018-12-21T16:20:42.262Z,89.60
2018-12-21T16:23:09.759Z,89.60
2018-12-21T16:25:37.312Z,90.00
2018-12-21T16:28:04.905Z,90.00
2018-12-21T16:30:33.708Z,90.20
2018-12-21T16:33:01.959Z,89.90
2018-12-21T16:35:29.747Z,89.80
2018-12-21T16:37:57.906Z,89.80
2018-12-21T16:40:25.512Z,90.00
2018-12-21T16:42:53.019Z,89.70
2018-12-21T16:45:20.818Z,89.60
2018-12-21T16:47:48.348Z,89.30
2018-12-21T16:50:15.913Z,89.50
2018-12-21T16:52:43.470Z,88.60
2018-12-21T16:55:11.042Z,88.20
2018-12-21T16:57:38.547Z,88.60
2018-12-21T17:00:10.054Z,88.90
2018-12-21T17:02:37.575Z,88.50
2018-12-21T17:05:07.415Z,88.20
2018-12-21T17:07:34.964Z,88.80
2018-12-21T17:10:02.853Z,88.50
2018-12-21T17:12:30.387Z,88.30
2018-12-21T17:14:57.930Z,88.50
2018-12-21T17:17:25.451Z,89.00
2018-12-21T17:19:53.965Z,88.90
2018-12-21T17:22:21.497Z,88.80
2018-12-21T17:24:49.153Z,89.00
2018-12-21T17:27:16.865Z,89.20
2018-12-21T17:29:44.398Z,88.90
2018-12-21T17:32:11.955Z,88.90
2018-12-21T17:34:39.463Z,88.80
2018-12-21T17:37:07.964Z,89.00
2018-12-21T17:39:35.473Z,88.90
2018-12-21T17:42:03.327Z,89.00
2018-12-21T17:44:30.971Z,88.80
2018-12-21T17:46:58.532Z,88.80
2018-12-21T17:49:26.081Z,88.50
2018-12-21T17:52:01.213Z,88.50
2018-12-21T17:54:23.238Z,88.40
2018-12-21T17:56:50.759Z,88.80
2018-12-21T17:59:18.314Z,89.10
2018-12-21T18:01:45.873Z,88.50
2018-12-21T18:04:19.324Z,89.00
2018-12-21T18:06:46.859Z,89.20
2018-12-21T18:09:14.394Z,88.90
2018-12-21T18:11:41.981Z,88.50
2018-12-21T18:14:09.518Z,88.10
2018-12-21T18:16:37.078Z,88.10
2018-12-21T18:19:04.627Z,88.10
2018-12-21T18:21:43.224Z,88.50
2018-12-21T18:24:10.872Z,88.70
2018-12-21T18:26:38.674Z,88.40
2018-12-21T18:29:06.937Z,88.30
2018-12-21T18:31:42.925Z,87.70
2018-12-21T18:34:14.179Z,87.50
2018-12-21T18:36:41.701Z,87.60
2018-12-21T18:39:09.327Z,88.20
2018-12-21T18:41:36.835Z,88.50
2018-12-21T18:44:04.379Z,88.30
2018-12-21T18:46:32.006Z,87.80
2018-12-21T18:48:59.623Z,88.10
2018-12-21T18:51:27.213Z,88.50
2018-12-21T18:53:54.740Z,88.80
2018-12-21T18:56:24.788Z,88.90
2018-12-21T18:58:52.457Z,89.00
2018-12-21T19:01:20.099Z,88.80
2018-12-21T19:03:47.862Z,88.80
2018-12-21T19:06:15.476Z,88.80
2018-12-21T19:08:43.080Z,88.50
2018-12-21T19:11:10.873Z,88.80
2018-12-21T19:13:38.471Z,88.80
2018-12-21T19:16:06.104Z,88.70
2018-12-21T19:18:33.692Z,88.80
2018-12-21T19:21:01.308Z,88.70
2018-12-21T19:23:28.871Z,88.70
2018-12-21T19:25:56.423Z,88.80
2018-12-21T19:28:23.970Z,89.00
2018-12-21T19:30:51.478Z,88.90
2018-12-21T19:33:19.094Z,88.70
2018-12-21T19:35:47.114Z,88.70
2018-12-21T19:38:14.651Z,89.00
2018-12-21T19:40:42.241Z,88.80
2018-12-21T19:43:09.916Z,88.60
2018-12-21T19:45:37.508Z,88.50
2018-12-21T19:48:05.230Z,88.70
2018-12-21T19:50:32.919Z,88.20
2018-12-21T19:53:02.490Z,87.80
2018-12-21T19:55:40.089Z,88.00
2018-12-21T19:58:07.664Z,88.00
2018-12-21T20:00:35.373Z,88.50
2018-12-21T20:03:03.097Z,88.30
2018-12-21T20:05:30.711Z,88.30
2018-12-21T20:07:58.456Z,88.30
2018-12-21T20:10:26.186Z,88.50
2018-12-21T20:12:53.769Z,88.50
2018-12-21T20:15:21.363Z,88.80
2018-12-21T20:17:49.045Z,88.60
2018-12-21T20:20:16.732Z,88.90
2018-12-21T20:22:44.398Z,89.00
2018-12-21T20:25:11.999Z,88.80
2018-12-21T20:27:40.307Z,88.90
2018-12-21T20:30:11.182Z,88.70
2018-12-21T20:32:38.824Z,88.60
2018-12-21T20:35:07.297Z,88.70
2018-12-21T20:37:34.959Z,88.50
2018-12-21T20:40:02.636Z,88.40
2018-12-21T20:42:30.770Z,88.40
2018-12-21T20:44:58.410Z,88.70
2018-12-21T20:47:25.940Z,88.40
2018-12-21T20:49:53.513Z,88.30
2018-12-21T20:52:21.109Z,88.50
2018-12-21T20:54:48.741Z,88.50
2018-12-21T20:57:21.789Z,89.00
2018-12-21T20:59:47.495Z,89.40
2018-12-21T21:02:15.099Z,89.60
2018-12-21T21:04:42.795Z,90.70
2018-12-21T21:07:10.386Z,91.00
2018-12-21T21:09:38.083Z,91.70
2018-12-21T21:12:05.729Z,90.80
2018-12-21T21:14:34.041Z,90.70
2018-12-21T21:17:01.912Z,90.40
2018-12-21T21:19:33.500Z,90.20
2018-12-21T21:22:01.098Z,90.20
2018-12-21T21:24:28.684Z,89.40
2018-12-21T21:26:56.271Z,89.20
2018-12-21T21:29:23.776Z,89.10
2018-12-21T21:31:51.458Z,90.00
2018-12-21T21:34:19.106Z,90.00
2018-12-21T21:36:46.672Z,90.50
2018-12-21T21:39:14.236Z,90.30
2018-12-21T21:41:41.864Z,89.60
2018-12-21T21:44:09.710Z,90.20
2018-12-21T21:46:37.404Z,91.30
2018-12-21T21:49:05.020Z,91.20
2018-12-21T21:51:32.786Z,90.40
2018-12-21T21:54:00.274Z,91.50
2018-12-21T21:56:27.766Z,91.50
2018-12-21T21:58:55.408Z,92.50
2018-12-21T22:01:23.074Z,92.90
2018-12-21T22:03:50.702Z,93.20
2018-12-21T22:06:18.294Z,93.30
2018-12-21T22:08:45.938Z,93.60
2018-12-21T22:11:13.518Z,93.90
2018-12-21T22:13:41.114Z,93.80
2018-12-21T22:16:08.768Z,94.20
2018-12-21T22:18:36.325Z,93.90
2018-12-21T22:21:04.091Z,93.30
2018-12-21T22:23:31.696Z,93.30
2018-12-21T22:25:59.531Z,92.40
2018-12-21T22:28:27.101Z,92.50
2018-12-21T22:30:54.695Z,92.50
2018-12-21T22:33:22.290Z,91.40
2018-12-21T22:35:49.969Z,92.00
2018-12-21T22:38:17.708Z,91.80
2018-12-21T22:40:45.315Z,92.30
2018-12-21T22:43:12.951Z,92.60
2018-12-21T22:45:40.510Z,93.40
2018-12-21T22:48:08.094Z,93.30
2018-12-21T22:50:35.771Z,93.40
2018-12-21T22:53:03.297Z,93.30
2018-12-21T22:55:30.897Z,93.70
2018-12-21T22:57:58.474Z,94.10
2018-12-21T23:00:38.350Z,94.90
2018-12-21T23:03:06.017Z,94.40
2018-12-21T23:05:33.570Z,94.30
2018-12-21T23:08:01.380Z,94.10
2018-12-21T23:10:28.970Z,94.10
2018-12-21T23:12:56.505Z,94.50
2018-12-21T23:15:24.077Z,94.10
2018-12-21T23:17:51.654Z,94.30
2018-12-21T23:20:19.203Z,94.30
2018-12-21T23:22:46.730Z,94.20
2018-12-21T23:25:14.286Z,92.90
2018-12-21T23:27:42.336Z,93.30
2018-12-21T23:30:10.020Z,93.10
2018-12-21T23:32:37.564Z,92.30
2018-12-21T23:35:06.269Z,92.40
2018-12-21T23:37:34.421Z,92.60
2018-12-21T23:40:02.107Z,93.20
2018-12-21T23:42:29.654Z,93.00
2018-12-21T23:44:57.240Z,92.80
2018-12-21T23:47:24.792Z,93.00
2018-12-21T23:49:52.395Z,93.00
2018-12-21T23:52:20.020Z,93.10
2018-12-21T23:54:48.441Z,93.10
2018-12-21T23:57:16.011Z,93.40
2018-12-21T23:59:43.505Z,93.60
